AIRPORT ID: 20N

DATE: 2023-12-11 ZULU TIME: 12.55 LOCAL TIME: 7.55


METAR K20N 111255Z AUTO 00000KT 7SM 03/02 A2968

ALTIMETER: A2968 Q1005

DENSITY ALT: -900 Ft

WIND DIRECT: 170

WIND SPEED: 0 Gust

WIND CONDITIONS:

VISIBILTY: 7SM 9999M

TEMPERATURE: 37 F 3 C

DEW POINT: 35 F 2 C

HUMID: 94%

LCL: Under 500 feet

RADIO CHECK: 0

ADVISARIES: 0

GREETINGS: 0

CONVERSATIONS: 0